Search for airport 
image banner adimage banner adimage banner ad
image banner ad

KIFA - Iowa Falls Muni

Located in Iowa Falls, United States

ICAO - IFA, IATA - IFA

Data provided by Airmate  

General information

Coordinates: N42°28'17" W93°16'15"
Elevation is 1137 feet MSL.
Magnetic variation is 01° East
View others Airports in Iowa

Operational data

Special qualification required
Current time UTC:
Current local time:
Weather
METAR: KIFA 150915Z AUTO 31003KT 10SM CLR 15/09 A3012 RMK AO2 T01450090
View NOTAMs / SUP AIP / TFR affecting this airport [VIEW]
Communications frequencies: [VIEW]

Runways:

RWY identifierQFULength (ft)Width (ft)SurfaceLDA (ft)
13135°460075ASPH
31315°460075ASPH

Airport contact information

Address: Iowa Falls United States

Other aviation service providers

Flight schools

Four Winds Aviation

Four Winds Aviation

Satellite view of KIFA